createdAt,value
2019-05-26T00:00:26.033Z,12.38
2019-05-26T00:02:55.452Z,12.46
2019-05-26T00:05:24.657Z,12.49
2019-05-26T00:07:53.899Z,12.72
2019-05-26T00:10:23.081Z,12.86
2019-05-26T00:12:52.258Z,12.63
2019-05-26T00:15:21.558Z,12.81
2019-05-26T00:17:50.765Z,12.72
2019-05-26T00:20:20.037Z,12.43
2019-05-26T00:22:49.197Z,12.18
2019-05-26T00:25:18.438Z,12.20
2019-05-26T00:27:47.656Z,12.30
2019-05-26T00:30:17.055Z,12.63
2019-05-26T00:32:46.480Z,12.73
2019-05-26T00:35:15.972Z,12.74
2019-05-26T00:37:49.616Z,12.58
2019-05-26T00:40:16.287Z,12.71
2019-05-26T00:42:45.545Z,12.90
2019-05-26T00:45:14.889Z,12.97
2019-05-26T00:47:44.155Z,12.97
2019-05-26T00:50:13.637Z,12.72
2019-05-26T00:52:42.863Z,12.57
2019-05-26T00:55:12.238Z,12.21
2019-05-26T00:57:41.390Z,12.41
2019-05-26T01:00:11.466Z,11.90
2019-05-26T01:02:40.755Z,11.15
2019-05-26T01:05:10.755Z,11.25
2019-05-26T01:07:39.910Z,11.99
2019-05-26T01:10:10.286Z,12.18
2019-05-26T01:12:39.493Z,10.89
2019-05-26T01:15:09.713Z,10.45
2019-05-26T01:17:38.971Z,10.60
2019-05-26T01:20:08.278Z,10.63
2019-05-26T01:22:37.451Z,10.92
2019-05-26T01:25:07.863Z,10.36
2019-05-26T01:27:37.161Z,10.85
2019-05-26T01:30:06.628Z,11.39
2019-05-26T01:32:35.850Z,11.62
2019-05-26T01:35:05.538Z,11.47
2019-05-26T01:37:35.243Z,11.63
2019-05-26T01:40:05.314Z,11.98
2019-05-26T01:42:34.622Z,11.99
2019-05-26T01:45:04.020Z,11.69
2019-05-26T01:47:33.223Z,11.47
2019-05-26T01:50:02.364Z,11.54
2019-05-26T01:52:31.609Z,11.59
2019-05-26T01:55:00.745Z,11.05
2019-05-26T01:57:30.019Z,11.10
2019-05-26T01:59:59.210Z,11.33
2019-05-26T02:02:28.498Z,11.12
2019-05-26T02:04:57.763Z,10.97
2019-05-26T02:07:26.942Z,10.50
2019-05-26T02:09:56.139Z,10.69
2019-05-26T02:12:25.347Z,10.43
2019-05-26T02:14:54.546Z,10.35
2019-05-26T02:17:23.785Z,10.01
2019-05-26T02:19:53.133Z,10.68
2019-05-26T02:22:22.355Z,10.57
2019-05-26T02:24:51.599Z,9.96
2019-05-26T02:27:20.820Z,10.25
2019-05-26T02:29:49.987Z,10.54
2019-05-26T02:32:19.204Z,10.59
2019-05-26T02:34:48.413Z,10.91
2019-05-26T02:37:17.607Z,10.62
2019-05-26T02:39:46.846Z,10.44
2019-05-26T02:42:16.039Z,10.45
2019-05-26T02:44:45.298Z,10.79
2019-05-26T02:47:14.482Z,10.97
2019-05-26T02:49:43.704Z,10.97
2019-05-26T02:52:12.877Z,11.17
2019-05-26T02:54:42.144Z,11.38
2019-05-26T02:57:11.836Z,11.52
2019-05-26T02:59:41.041Z,10.04
2019-05-26T03:02:10.247Z,10.04
2019-05-26T03:04:41.247Z,9.94
2019-05-26T03:07:11.701Z,10.70
2019-05-26T03:09:41.629Z,10.95
2019-05-26T03:12:10.824Z,11.16
2019-05-26T03:14:42.853Z,11.38
2019-05-26T03:17:12.018Z,11.38
2019-05-26T03:19:43.765Z,11.37
2019-05-26T03:22:16.076Z,11.28
2019-05-26T03:24:49.065Z,11.19
2019-05-26T03:27:18.370Z,10.76
2019-05-26T03:29:47.779Z,10.47
2019-05-26T03:32:17.006Z,10.31
2019-05-26T03:34:46.267Z,10.40
2019-05-26T03:37:15.552Z,10.27
2019-05-26T03:39:46.315Z,10.06
2019-05-26T03:42:15.819Z,9.69
2019-05-26T03:44:44.998Z,9.43
2019-05-26T03:47:16.871Z,9.40
2019-05-26T03:49:45.455Z,9.26
2019-05-26T03:52:14.703Z,9.59
2019-05-26T03:54:43.935Z,10.31
2019-05-26T03:57:13.188Z,9.97
2019-05-26T03:59:42.376Z,9.98
2019-05-26T04:02:11.579Z,10.22
2019-05-26T04:04:40.782Z,10.62
2019-05-26T04:07:10.009Z,10.45
2019-05-26T04:09:39.210Z,10.69
2019-05-26T04:12:08.405Z,10.07
2019-05-26T04:14:37.663Z,10.04
2019-05-26T04:17:06.919Z,10.22
2019-05-26T04:19:36.110Z,10.55
2019-05-26T04:22:05.372Z,10.35
2019-05-26T04:24:34.547Z,10.56
2019-05-26T04:27:03.808Z,10.55
2019-05-26T04:29:32.974Z,10.70
2019-05-26T04:32:02.551Z,11.15
2019-05-26T04:34:31.815Z,11.50
2019-05-26T04:37:00.998Z,11.26
2019-05-26T04:39:30.165Z,11.14
2019-05-26T04:41:59.364Z,11.11
2019-05-26T04:44:28.596Z,11.53
2019-05-26T04:46:57.779Z,11.81
2019-05-26T04:49:27.004Z,11.97
2019-05-26T04:51:56.177Z,12.18
2019-05-26T04:54:58.167Z,11.94
2019-05-26T04:57:27.726Z,11.63
2019-05-26T04:59:56.914Z,11.57
2019-05-26T05:02:26.093Z,11.51
2019-05-26T05:04:55.554Z,11.59
2019-05-26T05:07:28.306Z,11.69
2019-05-26T05:09:55.744Z,11.68
2019-05-26T05:12:24.907Z,11.69
2019-05-26T05:14:54.185Z,11.64
2019-05-26T05:17:23.417Z,11.63
2019-05-26T05:19:52.693Z,11.97
2019-05-26T05:22:21.891Z,12.46
2019-05-26T05:24:51.147Z,12.63
2019-05-26T05:27:20.366Z,12.52
2019-05-26T05:29:49.558Z,12.75
2019-05-26T05:32:18.765Z,12.54
2019-05-26T05:34:47.996Z,12.32
2019-05-26T05:37:17.182Z,12.12
2019-05-26T05:39:46.396Z,12.30
2019-05-26T05:42:15.549Z,12.50
2019-05-26T05:44:44.779Z,12.56
2019-05-26T05:47:13.951Z,12.46
2019-05-26T05:49:43.282Z,12.56
2019-05-26T05:52:12.640Z,12.53
2019-05-26T05:54:41.930Z,12.63
2019-05-26T05:57:11.176Z,12.75
2019-05-26T05:59:40.377Z,12.82
2019-05-26T06:02:09.563Z,12.83
2019-05-26T06:04:38.803Z,12.96
2019-05-26T06:07:08.034Z,12.90
2019-05-26T06:09:37.245Z,13.05
2019-05-26T06:12:06.455Z,12.96
2019-05-26T06:14:35.669Z,13.12
2019-05-26T06:17:04.908Z,13.16
2019-05-26T06:19:34.104Z,13.35
2019-05-26T06:22:03.311Z,13.59
2019-05-26T06:24:32.458Z,13.84
2019-05-26T06:27:01.773Z,13.97
2019-05-26T06:29:30.963Z,13.93
2019-05-26T06:32:00.598Z,13.89
2019-05-26T06:34:30.072Z,14.27
2019-05-26T06:36:59.451Z,14.56
2019-05-26T06:39:28.688Z,14.62
2019-05-26T06:41:57.943Z,14.83
2019-05-26T06:44:27.124Z,15.01
2019-05-26T06:46:56.376Z,14.90
2019-05-26T06:49:25.551Z,14.95
2019-05-26T06:51:54.789Z,15.05
2019-05-26T06:54:23.990Z,15.12
2019-05-26T06:56:53.203Z,15.45
2019-05-26T06:59:22.403Z,15.38
2019-05-26T07:01:51.638Z,15.66
2019-05-26T07:04:20.854Z,15.87
2019-05-26T07:06:50.088Z,16.15
2019-05-26T07:09:19.265Z,16.55
2019-05-26T07:11:57.066Z,16.55
2019-05-26T07:14:19.684Z,16.23
2019-05-26T07:16:54.742Z,16.74
2019-05-26T07:19:24.838Z,16.94
2019-05-26T07:21:54.235Z,17.38
2019-05-26T07:24:23.476Z,17.59
2019-05-26T07:26:54.170Z,17.25
2019-05-26T07:29:23.396Z,17.77
2019-05-26T07:31:52.843Z,17.71
2019-05-26T07:34:22.210Z,18.03
2019-05-26T07:36:51.532Z,18.51
2019-05-26T07:39:20.805Z,18.36
2019-05-26T07:42:08.287Z,18.48
2019-05-26T07:44:21.055Z,18.64
2019-05-26T07:46:50.368Z,17.84
2019-05-26T07:49:19.715Z,17.22
2019-05-26T07:51:49.001Z,18.06
2019-05-26T07:54:25.544Z,18.78
2019-05-26T07:56:49.287Z,18.49
2019-05-26T07:59:18.542Z,18.88
2019-05-26T08:01:47.748Z,19.32
2019-05-26T08:04:16.976Z,19.79
2019-05-26T08:06:46.326Z,20.21
2019-05-26T08:09:15.578Z,20.13
2019-05-26T08:11:44.874Z,21.41
2019-05-26T08:14:14.087Z,21.26
2019-05-26T08:16:43.356Z,20.14
2019-05-26T08:19:12.688Z,19.47
2019-05-26T08:21:41.958Z,19.08
2019-05-26T08:24:11.232Z,19.97
2019-05-26T08:26:40.562Z,18.74
2019-05-26T08:29:10.043Z,20.54
2019-05-26T08:31:39.261Z,22.40
2019-05-26T08:34:08.511Z,22.68
2019-05-26T08:36:37.951Z,22.68
2019-05-26T08:39:09.536Z,23.50
2019-05-26T08:41:38.829Z,20.77
2019-05-26T08:44:08.455Z,21.17
2019-05-26T08:46:37.707Z,21.67
2019-05-26T08:49:06.918Z,22.64
2019-05-26T08:51:36.135Z,23.81
2019-05-26T08:54:05.479Z,23.39
2019-05-26T08:56:34.822Z,22.61
2019-05-26T08:59:04.037Z,23.59
2019-05-26T09:01:33.729Z,23.24
2019-05-26T09:04:03.036Z,23.79
2019-05-26T09:06:32.455Z,22.91
2019-05-26T09:09:01.692Z,23.50
2019-05-26T09:11:30.978Z,24.63
2019-05-26T09:14:03.218Z,22.57
2019-05-26T09:16:32.428Z,23.26
2019-05-26T09:19:01.682Z,22.31
2019-05-26T09:21:30.944Z,24.51
2019-05-26T09:24:00.173Z,22.72
2019-05-26T09:26:29.493Z,24.29
2019-05-26T09:28:59.678Z,24.70
2019-05-26T09:31:29.574Z,22.71
2019-05-26T09:33:58.861Z,24.93
2019-05-26T09:36:28.092Z,24.82
2019-05-26T09:38:57.315Z,25.32
2019-05-26T09:41:26.596Z,24.72
2019-05-26T09:43:55.853Z,24.51
2019-05-26T09:46:25.127Z,24.73
2019-05-26T09:48:54.389Z,23.64
2019-05-26T09:51:23.623Z,24.69
2019-05-26T09:54:01.270Z,25.92
2019-05-26T09:56:24.381Z,25.81
2019-05-26T09:58:53.654Z,25.55
2019-05-26T10:01:22.907Z,25.42
2019-05-26T10:03:52.153Z,23.46
2019-05-26T10:06:21.483Z,23.08
2019-05-26T10:08:51.515Z,23.87
2019-05-26T10:11:20.748Z,25.22
2019-05-26T10:13:50.054Z,24.52
2019-05-26T10:16:19.305Z,24.37
2019-05-26T10:18:48.523Z,24.41
2019-05-26T10:21:17.788Z,21.13
2019-05-26T10:23:47.037Z,20.89
2019-05-26T10:26:16.304Z,21.70
2019-05-26T10:28:45.556Z,22.03
2019-05-26T10:31:14.953Z,20.81
2019-05-26T10:33:44.285Z,21.76
2019-05-26T10:36:13.524Z,23.01
2019-05-26T10:38:42.967Z,23.44
2019-05-26T10:41:12.314Z,23.42
2019-05-26T10:43:47.361Z,23.92
2019-05-26T10:46:12.738Z,22.99
2019-05-26T10:48:42.067Z,23.26
2019-05-26T10:51:11.357Z,24.79
2019-05-26T10:53:40.674Z,25.04
2019-05-26T10:56:09.973Z,24.47
2019-05-26T10:58:39.247Z,25.59
2019-05-26T11:01:08.478Z,25.53
2019-05-26T11:03:37.718Z,26.17
2019-05-26T11:06:06.992Z,25.24
2019-05-26T11:08:36.273Z,23.79
2019-05-26T11:11:05.566Z,23.12
2019-05-26T11:13:34.821Z,22.72
2019-05-26T11:16:04.410Z,23.16
2019-05-26T11:18:33.677Z,22.99
2019-05-26T11:21:02.984Z,23.01
2019-05-26T11:23:32.285Z,22.35
2019-05-26T11:26:01.616Z,22.79
2019-05-26T11:28:30.807Z,22.35
2019-05-26T11:31:00.131Z,22.75
2019-05-26T11:33:28.412Z,22.47
2019-05-26T11:35:56.677Z,22.33
2019-05-26T11:38:24.968Z,22.33
2019-05-26T11:40:53.279Z,22.11
2019-05-26T11:43:21.512Z,22.32
2019-05-26T11:45:49.795Z,22.41
2019-05-26T11:48:17.931Z,21.97
2019-05-26T11:50:46.201Z,24.15
2019-05-26T11:53:14.413Z,24.00
2019-05-26T11:55:42.992Z,23.89
2019-05-26T11:58:11.564Z,23.74
2019-05-26T12:00:39.786Z,22.89
2019-05-26T12:03:08.032Z,22.89
2019-05-26T12:05:36.262Z,23.87
2019-05-26T12:08:04.519Z,24.62
2019-05-26T12:10:32.748Z,24.36
2019-05-26T12:13:01.040Z,23.35
2019-05-26T12:15:29.269Z,22.45
2019-05-26T12:17:57.417Z,22.97
2019-05-26T12:38:20.898Z,22.22
2019-05-26T12:40:49.116Z,21.91
2019-05-26T12:43:17.336Z,21.87
2019-05-26T12:45:45.549Z,21.88
2019-05-26T12:48:13.820Z,22.19
2019-05-26T12:50:42.105Z,22.38
2019-05-26T12:53:10.373Z,22.49
2019-05-26T12:55:38.560Z,22.67
2019-05-26T12:58:06.793Z,22.58
2019-05-26T13:00:48.323Z,21.82
2019-05-26T13:03:07.140Z,21.58
2019-05-26T13:05:36.405Z,22.11
2019-05-26T13:08:05.764Z,23.22
2019-05-26T13:10:34.998Z,22.84
2019-05-26T13:13:04.369Z,22.29
2019-05-26T13:15:33.631Z,22.22
2019-05-26T13:18:02.918Z,23.08
2019-05-26T13:20:32.183Z,23.54
2019-05-26T13:23:01.391Z,23.39
2019-05-26T13:25:30.614Z,22.91
2019-05-26T13:27:59.857Z,22.21
2019-05-26T13:30:29.069Z,23.92
2019-05-26T13:32:58.249Z,21.58
2019-05-26T13:35:27.467Z,22.27
2019-05-26T13:37:56.711Z,22.47
2019-05-26T13:40:29.431Z,22.73
2019-05-26T13:42:56.889Z,23.29
2019-05-26T13:45:26.163Z,24.08
2019-05-26T13:47:55.419Z,24.95
2019-05-26T13:50:25.033Z,23.87
2019-05-26T13:52:55.620Z,23.84
2019-05-26T13:55:24.885Z,23.15
2019-05-26T13:57:54.110Z,24.01
2019-05-26T14:00:23.667Z,23.58
2019-05-26T14:02:53.085Z,23.34
2019-05-26T14:05:22.615Z,22.41
2019-05-26T14:07:52.020Z,23.08
2019-05-26T14:10:32.761Z,22.42
2019-05-26T14:13:02.003Z,22.65
2019-05-26T14:15:38.254Z,23.33
2019-05-26T14:18:03.619Z,23.39
2019-05-26T14:20:39.785Z,22.39
2019-05-26T14:23:10.262Z,23.27
2019-05-26T14:25:39.713Z,23.51
2019-05-26T14:28:09.186Z,23.46
2019-05-26T14:30:38.457Z,23.48
2019-05-26T14:33:07.672Z,23.19
2019-05-26T14:35:36.893Z,23.50
2019-05-26T14:38:06.082Z,22.96
2019-05-26T14:40:35.363Z,23.31
2019-05-26T14:43:04.559Z,23.54
2019-05-26T14:45:33.828Z,23.15
2019-05-26T14:48:03.143Z,22.89
2019-05-26T14:50:32.328Z,23.46
2019-05-26T14:53:01.529Z,22.67
2019-05-26T14:55:30.709Z,22.67
2019-05-26T14:58:14.304Z,22.57
2019-05-26T15:00:30.914Z,22.75
2019-05-26T15:03:00.145Z,23.17
2019-05-26T15:05:29.334Z,22.23
2019-05-26T15:07:58.557Z,22.81
2019-05-26T15:10:27.800Z,23.32
2019-05-26T15:12:57.024Z,22.93
2019-05-26T15:15:26.246Z,22.28
2019-05-26T15:17:55.484Z,23.65
2019-05-26T15:20:24.743Z,23.54
2019-05-26T15:22:53.990Z,22.36
2019-05-26T15:25:23.189Z,21.92
2019-05-26T15:27:52.467Z,22.78
2019-05-26T15:30:21.846Z,23.15
2019-05-26T15:32:51.047Z,22.91
2019-05-26T15:35:20.266Z,22.65
2019-05-26T15:37:49.468Z,22.93
2019-05-26T15:40:19.197Z,22.87
2019-05-26T15:42:48.506Z,22.56
2019-05-26T15:45:17.762Z,22.65
2019-05-26T15:47:46.984Z,22.11
2019-05-26T15:50:16.414Z,22.59
2019-05-26T15:52:45.689Z,22.86
2019-05-26T15:55:15.404Z,23.20
2019-05-26T15:57:44.802Z,23.64
2019-05-26T16:00:14.484Z,23.18
2019-05-26T16:02:43.731Z,22.29
2019-05-26T16:05:13.419Z,22.85
2019-05-26T16:07:42.677Z,23.35
2019-05-26T16:10:12.155Z,23.26
2019-05-26T16:12:41.340Z,23.00
2019-05-26T16:15:10.860Z,22.45
2019-05-26T16:17:40.094Z,22.78
2019-05-26T16:20:10.101Z,23.02
2019-05-26T16:22:39.280Z,22.97
2019-05-26T16:25:08.725Z,22.60
2019-05-26T16:27:37.978Z,22.39
2019-05-26T16:30:07.521Z,22.26
2019-05-26T16:32:36.799Z,21.99
2019-05-26T16:35:06.168Z,22.23
2019-05-26T16:37:35.477Z,21.75
2019-05-26T16:40:05.536Z,21.77
2019-05-26T16:42:34.741Z,21.58
2019-05-26T16:45:04.211Z,21.54
2019-05-26T16:47:33.514Z,21.89
2019-05-26T16:50:02.798Z,22.01
2019-05-26T16:52:32.077Z,21.98
2019-05-26T16:55:01.587Z,22.06
2019-05-26T16:57:30.916Z,22.29
2019-05-26T17:00:00.269Z,21.83
2019-05-26T17:02:29.557Z,21.49
2019-05-26T17:04:58.814Z,21.76
2019-05-26T17:07:28.055Z,21.97
2019-05-26T17:09:57.313Z,21.98
2019-05-26T17:12:26.553Z,22.21
2019-05-26T17:14:55.795Z,21.63
2019-05-26T17:17:25.056Z,21.25
2019-05-26T17:19:55.004Z,21.27
2019-05-26T17:22:24.224Z,21.32
2019-05-26T17:24:53.491Z,21.42
2019-05-26T17:27:22.727Z,21.41
2019-05-26T17:29:51.993Z,21.13
2019-05-26T17:32:21.263Z,21.18
2019-05-26T17:34:50.549Z,21.18
2019-05-26T17:37:19.825Z,21.43
2019-05-26T17:39:49.060Z,20.97
2019-05-26T17:42:18.306Z,21.37
2019-05-26T17:44:47.555Z,21.58
2019-05-26T17:47:29.164Z,21.59
2019-05-26T17:49:47.807Z,21.41
2019-05-26T17:52:17.060Z,21.53
2019-05-26T17:54:46.260Z,21.27
2019-05-26T17:57:15.578Z,21.28
2019-05-26T17:59:44.771Z,21.15
2019-05-26T18:02:14.064Z,21.19
2019-05-26T18:04:42.280Z,20.42
2019-05-26T18:07:10.530Z,20.43
2019-05-26T18:09:44.283Z,19.98
2019-05-26T18:12:08.899Z,19.83
2019-05-26T18:14:37.705Z,19.87
2019-05-26T18:17:05.941Z,19.80
2019-05-26T18:19:34.130Z,19.76
2019-05-26T18:22:02.550Z,19.34
2019-05-26T18:24:30.912Z,19.30
2019-05-26T18:26:59.128Z,19.16
2019-05-26T18:29:27.400Z,19.16
2019-05-26T18:31:55.818Z,18.95
2019-05-26T18:34:24.281Z,18.87
2019-05-26T18:36:52.607Z,18.78
2019-05-26T18:39:20.955Z,18.81
2019-05-26T18:41:49.602Z,18.76
2019-05-26T18:44:17.987Z,18.41
2019-05-26T18:46:46.326Z,18.36
2019-05-26T18:49:14.661Z,18.21
2019-05-26T18:51:42.873Z,18.16
2019-05-26T18:54:11.100Z,17.71
2019-05-26T18:56:39.298Z,17.76
2019-05-26T18:59:07.602Z,17.66
2019-05-26T19:01:36.871Z,17.66
2019-05-26T19:04:06.164Z,17.59
2019-05-26T19:06:35.458Z,17.63
2019-05-26T19:09:07.195Z,17.51
2019-05-26T19:11:36.408Z,17.32
2019-05-26T19:14:05.937Z,17.15
2019-05-26T19:16:35.127Z,16.99
2019-05-26T19:19:04.866Z,17.07
2019-05-26T19:21:34.168Z,16.81
2019-05-26T19:24:03.532Z,16.93
2019-05-26T19:26:32.738Z,16.84
2019-05-26T19:29:01.980Z,16.84
2019-05-26T19:31:31.339Z,16.81
2019-05-26T19:34:00.648Z,16.66
2019-05-26T19:36:29.979Z,16.65
2019-05-26T19:38:59.172Z,16.52
2019-05-26T19:41:28.408Z,16.47
2019-05-26T19:43:57.683Z,16.36
2019-05-26T19:46:27.204Z,16.36
2019-05-26T19:48:56.737Z,16.21
2019-05-26T19:51:25.962Z,15.97
2019-05-26T19:53:55.228Z,15.73
2019-05-26T19:56:24.463Z,15.76
2019-05-26T19:58:53.682Z,15.84
2019-05-26T20:01:22.943Z,15.79
2019-05-26T20:03:52.208Z,15.74
2019-05-26T20:06:21.612Z,15.74
2019-05-26T20:08:50.838Z,15.91
2019-05-26T20:11:20.115Z,15.97
2019-05-26T20:13:49.314Z,15.90
2019-05-26T20:16:18.563Z,15.77
2019-05-26T20:18:47.813Z,15.79
2019-05-26T20:21:17.279Z,16.40
2019-05-26T20:23:46.598Z,16.75
2019-05-26T20:26:15.920Z,16.00
2019-05-26T20:28:45.295Z,16.00
2019-05-26T20:31:14.625Z,15.65
2019-05-26T20:33:43.860Z,15.66
2019-05-26T20:36:13.082Z,15.78
2019-05-26T20:38:42.413Z,15.92
2019-05-26T20:41:11.745Z,16.55
2019-05-26T20:43:41.259Z,16.78
2019-05-26T20:46:10.658Z,16.79
2019-05-26T20:48:39.981Z,17.03
2019-05-26T20:51:09.239Z,17.17
2019-05-26T20:53:40.500Z,17.15
2019-05-26T20:56:09.367Z,17.21
2019-05-26T20:58:38.683Z,17.30
2019-05-26T21:01:07.862Z,17.34
2019-05-26T21:03:37.081Z,17.14
2019-05-26T21:06:06.405Z,17.00
2019-05-26T21:08:35.740Z,17.13
2019-05-26T21:11:04.993Z,17.22
2019-05-26T21:13:34.241Z,17.13
2019-05-26T21:16:03.477Z,17.23
2019-05-26T21:18:32.682Z,17.29
2019-05-26T21:21:01.921Z,17.29
2019-05-26T21:23:31.126Z,17.29
2019-05-26T21:26:00.303Z,17.25
2019-05-26T21:28:29.525Z,17.00
2019-05-26T21:30:58.791Z,16.73
2019-05-26T21:33:28.020Z,16.97
2019-05-26T21:35:57.230Z,16.98
2019-05-26T21:38:26.494Z,16.81
2019-05-26T21:40:55.712Z,16.64
2019-05-26T21:43:24.974Z,16.78
2019-05-26T21:45:54.260Z,16.84
2019-05-26T21:48:23.519Z,16.88
2019-05-26T21:50:52.718Z,16.80
2019-05-26T21:53:21.965Z,16.86
2019-05-26T21:55:51.211Z,16.69
2019-05-26T21:58:20.435Z,16.62
2019-05-26T22:00:50.758Z,16.55
2019-05-26T22:03:19.956Z,16.31
2019-05-26T22:05:49.186Z,16.06
2019-05-26T22:08:18.425Z,15.37
2019-05-26T22:10:47.649Z,15.81
2019-05-26T22:13:16.839Z,15.91
2019-05-26T22:15:46.130Z,16.03
2019-05-26T22:18:15.537Z,16.07
2019-05-26T22:20:45.249Z,15.98
2019-05-26T22:23:14.449Z,15.57
2019-05-26T22:25:43.654Z,15.52
2019-05-26T22:28:12.936Z,15.83
2019-05-26T22:30:42.293Z,15.93
2019-05-26T22:33:11.549Z,15.92
2019-05-26T22:35:41.134Z,15.81
2019-05-26T22:38:10.664Z,15.14
2019-05-26T22:40:39.957Z,14.73
2019-05-26T22:43:09.227Z,14.29
2019-05-26T22:45:38.891Z,14.16
2019-05-26T22:48:08.552Z,15.02
2019-05-26T22:50:37.878Z,14.94
2019-05-26T22:53:06.333Z,15.10
2019-05-26T22:55:34.555Z,14.62
2019-05-26T22:58:03.140Z,14.11
2019-05-26T23:00:31.883Z,13.83
2019-05-26T23:03:00.116Z,13.67
2019-05-26T23:05:29.298Z,13.50
2019-05-26T23:07:58.660Z,14.02
2019-05-26T23:10:27.953Z,13.75
2019-05-26T23:12:57.444Z,13.62
2019-05-26T23:15:26.867Z,13.42
2019-05-26T23:17:56.136Z,13.66
2019-05-26T23:20:25.438Z,14.22
2019-05-26T23:22:54.669Z,14.35
2019-05-26T23:25:23.906Z,14.43
2019-05-26T23:27:53.110Z,14.41
2019-05-26T23:30:22.370Z,14.14
2019-05-26T23:32:51.557Z,14.58
2019-05-26T23:35:20.795Z,14.61
2019-05-26T23:37:50.123Z,14.50
2019-05-26T23:40:19.334Z,14.71
2019-05-26T23:42:48.578Z,14.66
2019-05-26T23:45:17.824Z,14.57
2019-05-26T23:47:47.120Z,14.51
2019-05-26T23:50:16.408Z,14.58
2019-05-26T23:52:45.618Z,14.54
2019-05-26T23:55:15.331Z,14.25
2019-05-26T23:57:44.629Z,14.48
